UKHH

Kharkiv International Airport

Kharkiv, Ukraine
TAF UKHH 251410Z 2515/2524 30006MPS 9999 BKN007 SCT020CB TEMPO 2515/2524 2100 -SHRA BKN004 BKN015CB
Issued Valid From Valid To
Sep-25 @ 14:10 UTC
(3 hours ago)
Sep-25 @ 15:00 UTC
(2 hours ago)
Sep-26 @ 00:00 UTC
(in 7 hours)
Sep-25 @ 15:00 to Sep-26 @ 00:00
TAF UKHH 251410Z 2515/2524 30006MPS 9999 BKN007 SCT020CB
Wind Visibility Clouds
300° at 12 knots 10,000+ meters
  • Broken at 700' AGL
  • Scattered at 2,000' AGL
Temporary Sep-25 @ 15:00 to Sep-26 @ 00:00
TEMPO 2515/2524 2100 -SHRA BKN004 BKN015CB
Visibility Clouds Conditions
2,092 meters
  • Broken at 400' AGL
  • Broken at 1,500' AGL
  • Light Rain
TAF UKHH 251410Z 2515/2524 30006MPS 9999 BKN007 SCT020CB TEMPO 2515/2524 2100 -SHRA BKN004 BKN015CB
Issued Sep-25 @ 14:10 UTC
(3 hours ago)
Valid From Sep-25 @ 15:00 UTC
(2 hours ago)
Valid To Sep-26 @ 00:00 UTC
(in 7 hours)
Sep-25 @ 15:00 - Sep-26 @ 00:00
Wind Visibility
300° at 12 knots 10,000+ meters
Clouds
  • Broken at 700' AGL
  • Scattered at 2,000' AGL
Temporary Sep-25 @ 15:00 - Sep-26 @ 00:00
Clouds
  • Broken at 400' AGL
  • Broken at 1,500' AGL
Conditions
  • Light Rain